Dades meteomassalio
Diari Summary for Juny 16, 2017 Units:  Metric    English   Both
« Previous Day
Next Day »
Diari Semanal Mensual Anual Personalitzat
  Maxima: Minima: Mijana:
Temperatura: 36.6 °C 20.8 °C 28.4 °C
Rosada: 18.3 °C 11.7 °C 16.2 °C
Humitat: 74 % 23 % 51 %
Velocitat del vent: 20.4 km/h 0.0 km/h 5.9 km/h
Racha vent: 20.4 km/h - -
Vent:- - South
Pressio: 1019.9 hPa 1015.5 hPa -
Pluja: 0.0 mm    
Historical Graphs
 
 
Tabular Data for Juny 16, 2017
Time Temperature Dew Point Pressure Wind Wind Speed Wind Gust Humidity Rainfall Rate (Hourly) solar Conditions
00:02 26.9 °C 17.7 °C 1018.2 hPa Calm     57 % 0.0 mm 0.0 W/m2 CLR
00:07 26.9 °C 18.0 °C 1018.2 hPa Calm     58 % 0.0 mm 0.0 W/m2 CLR
00:12 27.1 °C 17.8 °C 1018.2 hPa Calm     57 % 0.0 mm 0.0 W/m2 CLR
00:17 27.2 °C 17.9 °C 1018.2 hPa NW 5.6 km/h 5.6 km/h 57 % 0.0 mm 0.0 W/m2 CLR
00:22 27.3 °C 18.0 °C 1018.2 hPa NW 9.7 km/h 9.7 km/h 57 % 0.0 mm 0.0 W/m2 CLR
00:27 27.3 °C 17.8 °C 1018.2 hPa WNW 13.0 km/h 13.0 km/h 56 % 0.0 mm 0.0 W/m2 CLR
00:32 27.3 °C 17.7 °C 1018.2 hPa NW 7.4 km/h 7.4 km/h 56 % 0.0 mm 0.0 W/m2 CLR
00:37 27.4 °C 17.3 °C 1018.2 hPa NNW 20.4 km/h 20.4 km/h 54 % 0.0 mm 0.0 W/m2 CLR
00:42 27.6 °C 17.1 °C 1018.2 hPa NW 7.4 km/h 7.4 km/h 53 % 0.0 mm 0.0 W/m2 CLR
00:47 27.6 °C 16.9 °C 1018.2 hPa NNW 16.7 km/h 16.7 km/h 52 % 0.0 mm 0.0 W/m2 CLR
00:52 27.7 °C 16.7 °C 1018.2 hPa North 9.7 km/h 9.7 km/h 51 % 0.0 mm 0.0 W/m2 CLR
00:57 27.7 °C 16.9 °C 1018.2 hPa NNW 18.5 km/h 18.5 km/h 52 % 0.0 mm 0.0 W/m2 CLR
00:58 27.7 °C 16.9 °C 1018.2 hPa North 13.0 km/h 13.0 km/h 52 % 0.0 mm 0.0 W/m2 CLR
01:03 27.6 °C 16.9 °C 1018.2 hPa North 13.0 km/h 13.0 km/h 52 % 0.0 mm 0.0 W/m2 CLR
01:08 27.5 °C 16.8 °C 1018.2 hPa NNW 12.9 km/h 12.9 km/h 52 % 0.0 mm 0.0 W/m2 CLR
01:13 27.4 °C 16.9 °C 1018.2 hPa NNW 11.1 km/h 11.1 km/h 53 % 0.0 mm 0.0 W/m2 CLR
01:18 27.2 °C 17.1 °C 1018.2 hPa NNW 5.6 km/h 5.6 km/h 54 % 0.0 mm 0.0 W/m2 CLR
01:23 27.1 °C 16.9 °C 1018.5 hPa NW 5.6 km/h 5.6 km/h 54 % 0.0 mm 0.0 W/m2 CLR
01:28 26.8 °C 17.1 °C 1018.5 hPa WNW 5.6 km/h 5.6 km/h 55 % 0.0 mm 0.0 W/m2 CLR
01:33 26.5 °C 17.0 °C 1018.5 hPa WNW 8.0 km/h 8.0 km/h 56 % 0.0 mm 0.0 W/m2 CLR
01:38 26.3 °C 17.1 °C 1018.5 hPa WNW 13.0 km/h 13.0 km/h 57 % 0.0 mm 0.0 W/m2 CLR
01:43 26.1 °C 17.2 °C 1018.5 hPa West 11.1 km/h 11.1 km/h 58 % 0.0 mm 0.0 W/m2 CLR
01:48 26.1 °C 17.2 °C 1018.5 hPa West 7.4 km/h 7.4 km/h 58 % 0.0 mm 0.0 W/m2 CLR
01:53 26.0 °C 17.1 °C 1018.5 hPa West 11.1 km/h 11.1 km/h 58 % 0.0 mm 0.0 W/m2 CLR
01:58 26.0 °C 17.1 °C 1018.2 hPa WSW 9.3 km/h 9.3 km/h 58 % 0.0 mm 0.0 W/m2 CLR
02:03 25.9 °C 17.0 °C 1018.2 hPa Calm     58 % 0.0 mm 0.0 W/m2 CLR
02:04 25.9 °C 17.0 °C 1018.2 hPa Calm     58 % 0.0 mm 0.0 W/m2 CLR
02:09 25.8 °C 17.2 °C 1018.2 hPa Calm     59 % 0.0 mm 0.0 W/m2 CLR
02:14 25.6 °C 17.0 °C 1018.5 hPa Calm     59 % 0.0 mm 0.0 W/m2 CLR
02:19 25.4 °C 17.1 °C 1018.5 hPa SW 5.6 km/h 5.6 km/h 60 % 0.0 mm 0.0 W/m2 CLR
02:24 25.2 °C 17.1 °C 1018.5 hPa West 8.0 km/h 8.0 km/h 61 % 0.0 mm 0.0 W/m2 CLR
02:29 25.0 °C 16.9 °C 1018.5 hPa Calm     61 % 0.0 mm 0.0 W/m2 CLR
02:34 24.9 °C 17.1 °C 1018.5 hPa Calm     62 % 0.0 mm 0.0 W/m2 CLR
02:39 24.7 °C 16.9 °C 1018.5 hPa West 3.7 km/h 3.7 km/h 62 % 0.0 mm 0.0 W/m2 CLR
02:44 24.6 °C 17.1 °C 1018.5 hPa West 1.9 km/h 1.9 km/h 63 % 0.0 mm 0.0 W/m2 CLR
02:49 24.4 °C 16.9 °C 1018.5 hPa Calm     63 % 0.0 mm 0.0 W/m2 CLR
02:54 24.2 °C 16.7 °C 1018.5 hPa Calm     63 % 0.0 mm 0.0 W/m2 CLR
02:59 24.0 °C 16.8 °C 1018.5 hPa WSW 5.6 km/h 5.6 km/h 64 % 0.0 mm 0.0 W/m2 CLR
03:04 23.8 °C 16.8 °C 1018.5 hPa West 1.9 km/h   65 % 0.0 mm 0.0 W/m2 CLR
03:09 23.6 °C 16.7 °C 1018.5 hPa WNW 1.9 km/h   65 % 0.0 mm 0.0 W/m2 CLR
03:14 23.6 °C 16.6 °C 1018.5 hPa Calm     65 % 0.0 mm 0.0 W/m2 CLR
03:19 23.4 °C 16.7 °C 1018.5 hPa Calm     66 % 0.0 mm 0.0 W/m2 CLR
03:24 23.3 °C 16.6 °C 1018.5 hPa West 1.9 km/h   66 % 0.0 mm 0.0 W/m2 CLR
03:29 23.3 °C 16.6 °C 1018.5 hPa Calm     66 % 0.0 mm 0.0 W/m2 CLR
03:34 23.2 °C 16.4 °C 1018.8 hPa NW 11.1 km/h 11.1 km/h 66 % 0.0 mm 0.0 W/m2 CLR
03:39 23.1 °C 16.6 °C 1018.8 hPa West 11.1 km/h 11.1 km/h 67 % 0.0 mm 0.0 W/m2 CLR
03:44 23.0 °C 16.6 °C 1018.5 hPa Calm     67 % 0.0 mm 0.0 W/m2 CLR
03:49 22.9 °C 16.4 °C 1018.8 hPa WSW 11.3 km/h 11.3 km/h 67 % 0.0 mm 0.0 W/m2 CLR
03:50 22.9 °C 16.2 °C 1018.8 hPa WSW 11.1 km/h 11.1 km/h 66 % 0.0 mm 0.0 W/m2 CLR
03:55 22.8 °C 16.4 °C 1018.5 hPa Calm     67 % 0.0 mm 0.0 W/m2 CLR
04:00 22.7 °C 16.3 °C 1018.8 hPa SW 3.7 km/h 3.7 km/h 67 % 0.0 mm 0.0 W/m2 CLR
04:05 22.7 °C 16.3 °C 1018.8 hPa WSW 9.3 km/h 9.3 km/h 67 % 0.0 mm 0.0 W/m2 CLR
04:06 22.7 °C 16.3 °C 1018.8 hPa WSW 9.3 km/h 9.3 km/h 67 % 0.0 mm 0.0 W/m2 CLR
04:11 22.6 °C 16.2 °C 1018.5 hPa West 5.6 km/h 5.6 km/h 67 % 0.0 mm 0.0 W/m2 CLR
04:16 22.6 °C 16.2 °C 1018.5 hPa West 7.4 km/h 7.4 km/h 67 % 0.0 mm 0.0 W/m2 CLR
04:21 22.6 °C 16.3 °C 1018.5 hPa WSW 5.6 km/h 5.6 km/h 68 % 0.0 mm 0.0 W/m2 CLR
04:26 22.5 °C 16.3 °C 1018.8 hPa West 9.7 km/h 9.7 km/h 68 % 0.0 mm 0.0 W/m2 CLR
04:31 22.4 °C 16.0 °C 1018.5 hPa WSW 14.5 km/h 14.5 km/h 67 % 0.0 mm 0.0 W/m2 CLR
04:36 22.4 °C 16.2 °C 1018.8 hPa West 13.0 km/h 13.0 km/h 68 % 0.0 mm 0.0 W/m2 CLR
04:41 22.3 °C 16.1 °C 1018.8 hPa West 11.1 km/h 11.1 km/h 68 % 0.0 mm 0.0 W/m2 CLR
04:46 22.3 °C 16.1 °C 1018.8 hPa West 14.5 km/h 14.5 km/h 68 % 0.0 mm 0.0 W/m2 CLR
04:51 22.2 °C 16.0 °C 1018.8 hPa SW 7.4 km/h 7.4 km/h 68 % 0.0 mm 0.0 W/m2 CLR
04:56 22.1 °C 16.1 °C 1018.8 hPa West 14.8 km/h 14.8 km/h 69 % 0.0 mm 0.0 W/m2 CLR
05:01 22.0 °C 15.8 °C 1018.8 hPa WSW 18.5 km/h 18.5 km/h 68 % 0.0 mm 0.0 W/m2 CLR
05:06 21.9 °C 15.8 °C 1018.8 hPa West 7.4 km/h 7.4 km/h 68 % 0.0 mm 0.0 W/m2 CLR
05:11 21.9 °C 15.7 °C 1018.5 hPa Calm     68 % 0.0 mm 0.0 W/m2 CLR
05:16 21.8 °C 15.7 °C 1018.5 hPa Calm     68 % 0.0 mm 0.0 W/m2 CLR
05:21 21.8 °C 15.8 °C 1018.8 hPa Calm     69 % 0.0 mm 0.0 W/m2 CLR
05:26 21.7 °C 15.8 °C 1018.8 hPa Calm     69 % 0.0 mm 0.0 W/m2 CLR
05:31 21.7 °C 15.7 °C 1018.8 hPa SSW 7.4 km/h 7.4 km/h 69 % 0.0 mm 0.0 W/m2 CLR
05:36 21.6 °C 15.6 °C 1018.8 hPa WSW 9.3 km/h 9.3 km/h 69 % 0.0 mm 0.0 W/m2 CLR
05:41 21.4 °C 15.5 °C 1018.8 hPa WSW 11.3 km/h 11.3 km/h 69 % 0.0 mm 0.0 W/m2 CLR
05:46 21.5 °C 15.8 °C 1018.5 hPa SW 7.4 km/h 7.4 km/h 70 % 0.0 mm 0.0 W/m2 CLR
05:47 21.4 °C 15.7 °C 1018.5 hPa SW 7.4 km/h 7.4 km/h 70 % 0.0 mm 0.0 W/m2 CLR
05:52 21.4 °C 15.7 °C 1018.5 hPa SW 13.0 km/h 13.0 km/h 70 % 0.0 mm 0.0 W/m2 CLR
05:57 21.4 °C 15.7 °C 1018.5 hPa WSW 9.7 km/h 9.7 km/h 70 % 0.0 mm 0.0 W/m2 CLR
06:02 21.4 °C 15.7 °C 1018.5 hPa Calm     70 % 0.0 mm 0.0 W/m2 CLR
06:07 21.4 °C 15.7 °C 1018.5 hPa Calm     70 % 0.0 mm 0.0 W/m2 CLR
06:12 21.4 °C 15.7 °C 1018.5 hPa Calm     70 % 0.0 mm 0.0 W/m2 CLR
06:17 21.4 °C 15.7 °C 1018.5 hPa Calm     70 % 0.0 mm 0.0 W/m2 OVC
06:22 21.4 °C 15.7 °C 1018.2 hPa Calm     70 % 0.0 mm 0.0 W/m2 OVC
06:27 21.4 °C 15.7 °C 1018.5 hPa Calm     70 % 0.0 mm 5.0 W/m2 OVC
06:32 21.3 °C 15.6 °C 1018.8 hPa Calm     70 % 0.0 mm 7.0 W/m2 BKN
06:37 21.2 °C 15.6 °C 1018.8 hPa Calm     70 % 0.0 mm 9.0 W/m2 BKN
06:42 21.2 °C 15.5 °C 1018.8 hPa Calm     70 % 0.0 mm 11.0 W/m2 BKN
06:47 21.1 °C 15.6 °C 1018.8 hPa Calm     71 % 0.0 mm 14.0 W/m2 BKN
06:52 20.9 °C 15.7 °C 1018.8 hPa Calm     72 % 0.0 mm 18.0 W/m2 BKN
06:57 21.1 °C 15.6 °C 1019.2 hPa Calm     71 % 0.0 mm 21.0 W/m2 BKN
07:02 21.1 °C 15.9 °C 1019.2 hPa Calm     72 % 0.0 mm 26.0 W/m2 BKN
07:07 21.0 °C 15.8 °C 1019.2 hPa Calm     72 % 0.0 mm 30.0 W/m2 BKN
07:12 20.9 °C 15.7 °C 1019.2 hPa Calm     72 % 0.0 mm 33.0 W/m2 BKN
07:17 20.9 °C 15.9 °C 1019.2 hPa Calm     73 % 0.0 mm 39.0 W/m2 BKN
07:22 20.8 °C 15.8 °C 1019.2 hPa Calm     73 % 0.0 mm 44.0 W/m2 BKN
07:27 20.9 °C 15.9 °C 1019.2 hPa Calm     73 % 0.0 mm 51.0 W/m2 BKN
07:32 20.9 °C 16.1 °C 1019.2 hPa Calm     74 % 0.0 mm 60.0 W/m2 SCT
07:37 20.9 °C 15.9 °C 1019.5 hPa Calm     73 % 0.0 mm 67.0 W/m2 SCT
07:42 20.9 °C 16.1 °C 1019.5 hPa Calm     74 % 0.0 mm 74.0 W/m2 FEW
07:47 20.8 °C 16.0 °C 1019.5 hPa Calm     74 % 0.0 mm 83.0 W/m2 FEW
07:52 20.8 °C 16.0 °C 1019.5 hPa Calm     74 % 0.0 mm 90.0 W/m2 FEW
07:57 20.9 °C 16.1 °C 1019.5 hPa Calm     74 % 0.0 mm 98.0 W/m2 CLR
08:02 20.9 °C 16.1 °C 1019.5 hPa Calm     74 % 0.0 mm 104.0 W/m2 CLR
08:07 21.1 °C 16.2 °C 1019.5 hPa Calm     74 % 0.0 mm 111.0 W/m2 CLR
08:12 21.2 °C 16.3 °C 1019.5 hPa Calm     74 % 0.0 mm 120.0 W/m2 CLR
08:17 21.3 °C 16.3 °C 1019.5 hPa Calm     73 % 0.0 mm 127.0 W/m2 CLR
08:22 21.6 °C 16.5 °C 1019.5 hPa Calm     73 % 0.0 mm 137.0 W/m2 CLR
08:27 21.7 °C 16.4 °C 1019.5 hPa Calm   0.2 km/h 72 % 0.0 mm 153.0 W/m2 CLR
08:32 21.9 °C 16.4 °C 1019.5 hPa Calm     71 % 0.0 mm 178.0 W/m2 CLR
08:37 22.1 °C 16.6 °C 1019.5 hPa Calm     71 % 0.0 mm 192.0 W/m2 CLR
08:42 22.3 °C 16.6 °C 1019.5 hPa Calm   0.2 km/h 70 % 0.0 mm 216.0 W/m2 CLR
08:47 22.7 °C 16.7 °C 1019.5 hPa WSW 6.4 km/h 6.4 km/h 69 % 0.0 mm 227.0 W/m2 CLR
08:52 22.9 °C 16.7 °C 1019.5 hPa Calm     68 % 0.0 mm 220.0 W/m2 CLR
08:57 23.1 °C 16.7 °C 1019.5 hPa Calm     67 % 0.0 mm 232.0 W/m2 CLR
09:02 23.3 °C 16.8 °C 1019.5 hPa Calm     67 % 0.0 mm 246.0 W/m2 CLR
09:07 23.6 °C 16.9 °C 1019.9 hPa NNW 5.6 km/h 5.6 km/h 66 % 0.0 mm 279.0 W/m2 CLR
09:13 23.8 °C 16.6 °C 1019.9 hPa NW 13.0 km/h 13.0 km/h 64 % 0.0 mm 315.0 W/m2 CLR
09:18 23.9 °C 16.7 °C 1019.9 hPa WNW 14.8 km/h 14.8 km/h 64 % 0.0 mm 287.0 W/m2 CLR
09:23 23.9 °C 16.7 °C 1019.9 hPa NNW 11.1 km/h 11.1 km/h 64 % 0.0 mm 330.0 W/m2 CLR
09:28 24.1 °C 16.8 °C 1019.9 hPa NW 13.0 km/h 13.0 km/h 64 % 0.0 mm 355.0 W/m2 CLR
09:33 24.1 °C 16.9 °C 1019.9 hPa WNW 3.2 km/h 3.2 km/h 64 % 0.0 mm 392.0 W/m2 CLR
09:38 24.3 °C 16.8 °C 1019.9 hPa NNW 13.0 km/h 13.0 km/h 63 % 0.0 mm 404.0 W/m2 CLR
09:43 24.3 °C 16.8 °C 1019.9 hPa NW 12.9 km/h 12.9 km/h 63 % 0.0 mm 432.0 W/m2 CLR
09:48 24.5 °C 16.7 °C 1019.9 hPa WNW 11.1 km/h 11.1 km/h 62 % 0.0 mm 471.0 W/m2 CLR
09:53 24.6 °C 16.8 °C 1019.9 hPa NNW 11.1 km/h 11.1 km/h 62 % 0.0 mm 499.0 W/m2 CLR
09:58 24.7 °C 16.9 °C 1019.9 hPa NW 9.7 km/h 9.7 km/h 62 % 0.0 mm 482.0 W/m2 CLR
10:03 24.9 °C 16.8 °C 1019.9 hPa NW 8.0 km/h 8.0 km/h 61 % 0.0 mm 494.0 W/m2 CLR
10:08 25.1 °C 16.8 °C 1019.9 hPa North 7.4 km/h 7.4 km/h 60 % 0.0 mm 548.0 W/m2 CLR
10:13 25.4 °C 17.1 °C 1019.9 hPa Calm     60 % 0.0 mm 571.0 W/m2 CLR
10:18 25.7 °C 17.1 °C 1019.9 hPa North 5.6 km/h 5.6 km/h 59 % 0.0 mm 591.0 W/m2 CLR
10:23 25.9 °C 17.0 °C 1019.9 hPa Calm     58 % 0.0 mm 596.0 W/m2 CLR
10:28 26.2 °C 17.5 °C 1019.9 hPa Calm     59 % 0.0 mm 450.0 W/m2 CLR
10:33 26.6 °C 17.1 °C 1019.9 hPa Calm     56 % 0.0 mm 455.0 W/m2 CLR
10:38 26.8 °C 17.0 °C 1019.9 hPa NNE 1.9 km/h 1.9 km/h 55 % 0.0 mm 589.0 W/m2 CLR
10:43 26.9 °C 17.1 °C 1019.9 hPa NW 9.3 km/h 9.3 km/h 55 % 0.0 mm 568.0 W/m2 CLR
10:48 27.0 °C 17.2 °C 1019.9 hPa North 11.3 km/h 11.3 km/h 55 % 0.0 mm 547.0 W/m2 CLR
10:53 27.1 °C 17.2 °C 1019.9 hPa WNW 11.1 km/h 11.1 km/h 55 % 0.0 mm 582.0 W/m2 CLR
10:58 27.2 °C 17.1 °C 1019.9 hPa WNW 8.0 km/h 8.0 km/h 54 % 0.0 mm 617.0 W/m2 CLR
11:03 27.4 °C 17.3 °C 1019.9 hPa North 1.9 km/h   54 % 0.0 mm 687.0 W/m2 CLR
11:08 27.5 °C 17.4 °C 1019.9 hPa NNW 8.0 km/h 8.0 km/h 54 % 0.0 mm 671.0 W/m2 CLR
11:13 27.5 °C 17.4 °C 1019.9 hPa North 11.3 km/h 11.3 km/h 54 % 0.0 mm 684.0 W/m2 CLR
11:18 27.6 °C 17.4 °C 1019.9 hPa NNW 11.1 km/h 11.1 km/h 54 % 0.0 mm 708.0 W/m2 CLR
11:23 27.7 °C 17.6 °C 1019.9 hPa NE 13.0 km/h 13.0 km/h 54 % 0.0 mm 742.0 W/m2 CLR
11:28 27.9 °C 17.4 °C 1019.9 hPa NNE 4.8 km/h 4.8 km/h 53 % 0.0 mm 751.0 W/m2 CLR
11:33 28.0 °C 17.5 °C 1019.5 hPa ENE 7.4 km/h   53 % 0.0 mm 765.0 W/m2 CLR
11:38 28.3 °C 17.5 °C 1019.9 hPa Calm     52 % 0.0 mm 782.0 W/m2 CLR
11:43 28.7 °C 17.8 °C 1019.5 hPa NE 3.7 km/h 3.7 km/h 52 % 0.0 mm 791.0 W/m2 CLR
11:48 29.0 °C 17.8 °C 1019.9 hPa ENE 6.4 km/h 6.4 km/h 51 % 0.0 mm 793.0 W/m2 CLR
11:53 29.1 °C 17.9 °C 1019.5 hPa East 5.6 km/h 5.6 km/h 51 % 0.0 mm 805.0 W/m2 CLR
11:58 28.8 °C 17.7 °C 1019.5 hPa North 7.4 km/h 7.4 km/h 51 % 0.0 mm 812.0 W/m2 CLR
12:03 29.0 °C 17.5 °C 1019.5 hPa ENE 16.7 km/h 16.7 km/h 50 % 0.0 mm 824.0 W/m2 CLR
12:08 29.2 °C 18.3 °C 1019.5 hPa NE 12.9 km/h 12.9 km/h 52 % 0.0 mm 828.0 W/m2 CLR
12:13 29.2 °C 17.7 °C 1019.5 hPa ENE 9.3 km/h 9.3 km/h 50 % 0.0 mm 838.0 W/m2 CLR
12:18 29.3 °C 17.8 °C 1019.5 hPa NNE 11.3 km/h 11.3 km/h 50 % 0.0 mm 846.0 W/m2 CLR
12:23 29.3 °C 17.8 °C 1019.5 hPa NE 5.6 km/h 5.6 km/h 50 % 0.0 mm 851.0 W/m2 CLR
12:28 29.4 °C 17.6 °C 1019.5 hPa ENE 13.0 km/h 13.0 km/h 49 % 0.0 mm 860.0 W/m2 CLR
12:33 29.5 °C 18.0 °C 1019.5 hPa ENE 13.0 km/h 13.0 km/h 50 % 0.0 mm 867.0 W/m2 CLR
12:38 29.7 °C 17.8 °C 1019.5 hPa East 9.3 km/h 9.3 km/h 49 % 0.0 mm 872.0 W/m2 CLR
12:43 29.8 °C 17.6 °C 1019.5 hPa ENE 8.0 km/h 8.0 km/h 48 % 0.0 mm 879.0 W/m2 CLR
12:48 29.7 °C 17.9 °C 1019.5 hPa East 11.1 km/h 11.1 km/h 49 % 0.0 mm 886.0 W/m2 CLR
12:53 30.1 °C 18.2 °C 1019.2 hPa East 6.4 km/h 6.4 km/h 49 % 0.0 mm 889.0 W/m2 CLR
12:58 30.0 °C 17.4 °C 1019.5 hPa East 7.4 km/h 7.4 km/h 47 % 0.0 mm 895.0 W/m2 CLR
13:03 29.9 °C 17.7 °C 1019.2 hPa ENE 7.4 km/h 7.4 km/h 48 % 0.0 mm 898.0 W/m2 CLR
13:08 30.1 °C 17.6 °C 1019.2 hPa ENE 18.5 km/h 18.5 km/h 47 % 0.0 mm 904.0 W/m2 CLR
13:12 30.3 °C 17.7 °C 1019.2 hPa ENE 11.1 km/h 11.1 km/h 47 % 0.0 mm 909.0 W/m2 CLR
13:17 30.4 °C 17.5 °C 1019.2 hPa ENE 11.1 km/h 11.1 km/h 46 % 0.0 mm 911.0 W/m2 CLR
13:22 30.7 °C 17.7 °C 1019.2 hPa ENE 9.3 km/h 9.3 km/h 46 % 0.0 mm 916.0 W/m2 CLR
13:27 30.7 °C 17.8 °C 1019.2 hPa ENE 7.4 km/h 7.4 km/h 46 % 0.0 mm 919.0 W/m2 CLR
13:32 30.9 °C 17.6 °C 1019.2 hPa ENE 11.3 km/h 11.3 km/h 45 % 0.0 mm 919.0 W/m2 CLR
13:38 30.7 °C 17.4 °C 1018.8 hPa ENE 6.4 km/h 6.4 km/h 45 % 0.0 mm 923.0 W/m2 CLR
13:48 31.1 °C 17.4 °C 1018.8 hPa East 5.6 km/h 5.6 km/h 44 % 0.0 mm 926.0 W/m2 CLR
13:53 31.1 °C 17.4 °C 1018.8 hPa SSE 11.1 km/h 11.1 km/h 44 % 0.0 mm 928.0 W/m2 CLR
13:58 31.3 °C 17.6 °C 1018.8 hPa ENE 9.3 km/h 9.3 km/h 44 % 0.0 mm 926.0 W/m2 CLR
14:03 31.7 °C 17.6 °C 1018.8 hPa ENE 14.8 km/h 14.8 km/h 43 % 0.0 mm 928.0 W/m2 CLR
14:08 31.9 °C 17.4 °C 1018.5 hPa ENE 11.1 km/h 11.1 km/h 42 % 0.0 mm 926.0 W/m2 CLR
14:13 31.9 °C 17.8 °C 1018.5 hPa NE 11.1 km/h 11.1 km/h 43 % 0.0 mm 928.0 W/m2 CLR
14:18 32.1 °C 17.6 °C 1018.5 hPa Calm     42 % 0.0 mm 925.0 W/m2 CLR
14:23 32.6 °C 17.7 °C 1018.5 hPa Calm     41 % 0.0 mm 923.0 W/m2 CLR
14:28 32.9 °C 17.6 °C 1018.5 hPa East 5.6 km/h 5.6 km/h 40 % 0.0 mm 921.0 W/m2 CLR
14:29 33.0 °C 17.2 °C 1018.5 hPa East 5.6 km/h 5.6 km/h 39 % 0.0 mm 919.0 W/m2 CLR
14:34 32.7 °C 17.3 °C 1018.5 hPa ENE 9.3 km/h 9.3 km/h 40 % 0.0 mm 918.0 W/m2 CLR
14:39 32.8 °C 17.4 °C 1018.2 hPa SE 1.9 km/h 1.9 km/h 40 % 0.0 mm 916.0 W/m2 CLR
14:41 32.9 °C 17.5 °C 1018.2 hPa ENE 5.6 km/h 5.6 km/h 40 % 0.0 mm 911.0 W/m2 CLR
14:46 33.1 °C 17.3 °C 1018.2 hPa NE 11.1 km/h 11.1 km/h 39 % 0.0 mm 911.0 W/m2 CLR
14:51 33.2 °C 17.0 °C 1018.2 hPa ENE 5.6 km/h 5.6 km/h 38 % 0.0 mm 909.0 W/m2 CLR
14:56 33.3 °C 17.4 °C 1018.2 hPa ENE 5.6 km/h 5.6 km/h 39 % 0.0 mm 907.0 W/m2 CLR
15:01 33.4 °C 17.2 °C 1018.2 hPa NE 13.0 km/h 13.0 km/h 38 % 0.0 mm 902.0 W/m2 CLR
15:06 33.6 °C 17.3 °C 1017.8 hPa ENE 9.3 km/h 9.3 km/h 38 % 0.0 mm 898.0 W/m2 CLR
15:11 33.8 °C 17.1 °C 1017.8 hPa East 7.4 km/h 7.4 km/h 37 % 0.0 mm 886.0 W/m2 CLR
15:16 33.9 °C 17.2 °C 1017.8 hPa ENE 14.8 km/h 14.8 km/h 37 % 0.0 mm 888.0 W/m2 CLR
15:21 33.8 °C 17.1 °C 1017.8 hPa ENE 7.4 km/h 7.4 km/h 37 % 0.0 mm 879.0 W/m2 CLR
15:26 33.9 °C 17.2 °C 1017.8 hPa Calm     37 % 0.0 mm 874.0 W/m2 CLR
15:31 34.2 °C 17.4 °C 1017.5 hPa ENE 11.3 km/h 11.3 km/h 37 % 0.0 mm 868.0 W/m2 CLR
15:36 34.2 °C 16.9 °C 1017.5 hPa ENE 16.7 km/h 16.7 km/h 36 % 0.0 mm 863.0 W/m2 CLR
15:41 33.9 °C 16.8 °C 1017.5 hPa NE 11.1 km/h 11.1 km/h 36 % 0.0 mm 853.0 W/m2 CLR
15:42 33.9 °C 16.7 °C 1017.5 hPa ENE 7.4 km/h 7.4 km/h 36 % 0.0 mm 853.0 W/m2 CLR
15:47 33.9 °C 16.8 °C 1017.5 hPa Calm     36 % 0.0 mm 842.0 W/m2 CLR
15:52 34.3 °C 16.6 °C 1017.5 hPa NNE 14.8 km/h 14.8 km/h 35 % 0.0 mm 838.0 W/m2 CLR
15:57 34.7 °C 16.9 °C 1017.5 hPa NNE 5.6 km/h 5.6 km/h 35 % 0.0 mm 831.0 W/m2 CLR
16:02 34.9 °C 16.3 °C 1017.2 hPa ENE 13.0 km/h 13.0 km/h 33 % 0.0 mm 823.0 W/m2 CLR
16:07 34.8 °C 16.6 °C 1017.2 hPa ENE 5.6 km/h 5.6 km/h 34 % 0.0 mm 814.0 W/m2 CLR
16:09 34.7 °C 16.6 °C 1017.2 hPa East 7.4 km/h 7.4 km/h 34 % 0.0 mm 810.0 W/m2 CLR
16:14 34.5 °C 15.9 °C 1017.2 hPa ENE 13.0 km/h 13.0 km/h 33 % 0.0 mm 802.0 W/m2 CLR
16:19 34.6 °C 16.4 °C 1017.2 hPa ENE 20.4 km/h 20.4 km/h 34 % 0.0 mm 793.0 W/m2 CLR
16:24 34.7 °C 16.1 °C 1017.2 hPa NE 14.8 km/h 14.8 km/h 33 % 0.0 mm 782.0 W/m2 CLR
16:29 34.9 °C 16.2 °C 1016.8 hPa East 8.0 km/h 8.0 km/h 33 % 0.0 mm 766.0 W/m2 CLR
16:34 34.8 °C 16.1 °C 1016.8 hPa ENE 5.6 km/h 5.6 km/h 33 % 0.0 mm 759.0 W/m2 CLR
16:39 34.9 °C 15.8 °C 1016.8 hPa ENE 9.3 km/h 9.3 km/h 32 % 0.0 mm 751.0 W/m2 CLR
16:44 35.2 °C 15.5 °C 1016.8 hPa NE 3.7 km/h 3.7 km/h 31 % 0.0 mm 744.0 W/m2 CLR
16:49 35.6 °C 15.9 °C 1016.8 hPa NE 3.7 km/h 3.7 km/h 31 % 0.0 mm 729.0 W/m2 CLR
16:54 35.9 °C 16.1 °C 1016.5 hPa NNE 18.5 km/h 18.5 km/h 31 % 0.0 mm 721.0 W/m2 CLR
16:59 36.2 °C 14.2 °C 1016.5 hPa NNE 1.6 km/h   27 % 0.0 mm 708.0 W/m2 CLR
17:04 36.3 °C 14.3 °C 1016.5 hPa NW 3.7 km/h 3.7 km/h 27 % 0.0 mm 700.0 W/m2 CLR
17:09 36.4 °C 14.4 °C 1016.5 hPa ENE 9.7 km/h 9.7 km/h 27 % 0.0 mm 689.0 W/m2 CLR
17:14 36.4 °C 14.4 °C 1016.5 hPa NNW 5.6 km/h 5.6 km/h 27 % 0.0 mm 675.0 W/m2 CLR
17:19 36.5 °C 13.9 °C 1016.5 hPa NNE 16.7 km/h 16.7 km/h 26 % 0.0 mm 661.0 W/m2 CLR
17:24 36.4 °C 13.8 °C 1016.5 hPa North 13.0 km/h 13.0 km/h 26 % 0.0 mm 647.0 W/m2 CLR
17:29 36.2 °C 14.2 °C 1016.5 hPa ENE 4.8 km/h 4.8 km/h 27 % 0.0 mm 636.0 W/m2 CLR
17:34 36.2 °C 14.2 °C 1016.5 hPa North 13.0 km/h 13.0 km/h 27 % 0.0 mm 621.0 W/m2 CLR
17:39 36.3 °C 13.7 °C 1016.1 hPa NNW 5.6 km/h 5.6 km/h 26 % 0.0 mm 605.0 W/m2 CLR
17:44 36.4 °C 13.8 °C 1016.1 hPa NE 3.7 km/h 3.7 km/h 26 % 0.0 mm 594.0 W/m2 CLR
17:49 36.4 °C 13.8 °C 1016.1 hPa North 11.3 km/h 11.3 km/h 26 % 0.0 mm 582.0 W/m2 CLR
17:50 36.4 °C 13.8 °C 1016.1 hPa North 12.9 km/h 12.9 km/h 26 % 0.0 mm 578.0 W/m2 CLR
17:55 36.4 °C 13.8 °C 1016.1 hPa NNE 13.0 km/h 13.0 km/h 26 % 0.0 mm 564.0 W/m2 CLR
18:00 36.4 °C 13.3 °C 1016.1 hPa NNE 5.6 km/h 5.6 km/h 25 % 0.0 mm 552.0 W/m2 CLR
18:05 36.6 °C 13.4 °C 1016.1 hPa East 8.0 km/h 8.0 km/h 25 % 0.0 mm 536.0 W/m2 CLR
18:10 36.4 °C 13.2 °C 1016.1 hPa ENE 5.6 km/h 5.6 km/h 25 % 0.0 mm 522.0 W/m2 CLR
18:15 36.4 °C 13.8 °C 1016.1 hPa NE 16.1 km/h 16.1 km/h 26 % 0.0 mm 510.0 W/m2 CLR
18:20 36.5 °C 13.3 °C 1016.1 hPa North 13.0 km/h 13.0 km/h 25 % 0.0 mm 496.0 W/m2 CLR
18:25 36.6 °C 13.9 °C 1015.8 hPa NW 13.0 km/h 13.0 km/h 26 % 0.0 mm 476.0 W/m2 CLR
18:30 36.6 °C 13.3 °C 1015.8 hPa NE 11.1 km/h 11.1 km/h 25 % 0.0 mm 461.0 W/m2 CLR
18:35 36.5 °C 13.3 °C 1015.8 hPa NNW 14.8 km/h 14.8 km/h 25 % 0.0 mm 448.0 W/m2 CLR
18:40 36.6 °C 12.7 °C 1015.8 hPa NNE 5.6 km/h 5.6 km/h 24 % 0.0 mm 436.0 W/m2 CLR
18:45 36.4 °C 13.3 °C 1015.8 hPa NNE 1.9 km/h 1.9 km/h 25 % 0.0 mm 417.0 W/m2 CLR
18:50 36.4 °C 13.2 °C 1015.8 hPa NW 7.4 km/h 7.4 km/h 25 % 0.0 mm 401.0 W/m2 CLR
18:55 36.5 °C 13.3 °C 1015.8 hPa NNE 18.5 km/h 18.5 km/h 25 % 0.0 mm 387.0 W/m2 CLR
19:00 36.5 °C 13.3 °C 1015.8 hPa NNW 13.0 km/h 13.0 km/h 25 % 0.0 mm 374.0 W/m2 CLR
19:05 36.5 °C 13.3 °C 1015.8 hPa North 9.7 km/h 9.7 km/h 25 % 0.0 mm 357.0 W/m2 CLR
19:07 36.4 °C 13.3 °C 1015.8 hPa NW 13.0 km/h 13.0 km/h 25 % 0.0 mm 353.0 W/m2 CLR
19:12 36.6 °C 13.3 °C 1015.8 hPa NNW 11.3 km/h 11.3 km/h 25 % 0.0 mm 336.0 W/m2 CLR
19:17 36.4 °C 13.3 °C 1015.8 hPa NNE 7.4 km/h 8.4 km/h 25 % 0.0 mm 320.0 W/m2 CLR
19:22 36.3 °C 13.2 °C 1015.8 hPa NNW 16.1 km/h 16.1 km/h 25 % 0.0 mm 308.0 W/m2 CLR
19:27 36.2 °C 13.1 °C 1015.5 hPa NW 9.3 km/h   25 % 0.0 mm 292.0 W/m2 CLR
19:32 36.2 °C 13.7 °C 1015.8 hPa NNW 7.4 km/h 7.4 km/h 26 % 0.0 mm 276.0 W/m2 CLR
19:37 36.3 °C 13.2 °C 1015.5 hPa NNW 14.8 km/h 14.8 km/h 25 % 0.0 mm 260.0 W/m2 CLR
19:42 36.2 °C 13.0 °C 1015.5 hPa Calm     25 % 0.0 mm 246.0 W/m2 CLR
19:47 36.3 °C 13.1 °C 1015.5 hPa NNW 16.7 km/h 16.7 km/h 25 % 0.0 mm 234.0 W/m2 CLR
19:52 36.3 °C 13.2 °C 1015.5 hPa Calm     25 % 0.0 mm 218.0 W/m2 CLR
19:57 36.3 °C 13.1 °C 1015.5 hPa NNW 3.7 km/h   25 % 0.0 mm 199.0 W/m2 CLR
20:02 36.2 °C 13.1 °C 1015.5 hPa North 9.7 km/h 9.7 km/h 25 % 0.0 mm 181.0 W/m2 CLR
20:07 36.2 °C 12.4 °C 1015.5 hPa NNE 3.7 km/h 3.7 km/h 24 % 0.0 mm 167.0 W/m2 CLR
20:12 36.2 °C 12.4 °C 1015.5 hPa NNW 3.7 km/h 3.7 km/h 24 % 0.0 mm 149.0 W/m2 CLR
20:17 36.1 °C 11.7 °C 1015.5 hPa NNW 13.0 km/h 13.0 km/h 23 % 0.0 mm 135.0 W/m2 CLR
20:22 36.0 °C 12.3 °C 1015.5 hPa Calm     24 % 0.0 mm 116.0 W/m2 CLR
20:27 36.0 °C 12.3 °C 1015.5 hPa Calm     24 % 0.0 mm 102.0 W/m2 CLR
20:32 36.0 °C 12.3 °C 1015.5 hPa Calm     24 % 0.0 mm 90.0 W/m2 CLR
20:37 35.9 °C 12.2 °C 1015.5 hPa Calm     24 % 0.0 mm 76.0 W/m2 FEW
20:42 35.9 °C 13.9 °C 1015.5 hPa Calm     27 % 0.0 mm 62.0 W/m2 SCT
20:47 35.7 °C 16.4 °C 1015.5 hPa Calm     32 % 0.0 mm 32.0 W/m2 BKN
20:52 34.9 °C 16.7 °C 1015.5 hPa Calm     34 % 0.0 mm 40.0 W/m2 BKN
20:57 34.1 °C 17.3 °C 1015.5 hPa Calm     37 % 0.0 mm 33.0 W/m2 BKN
21:02 33.5 °C 17.2 °C 1015.5 hPa Calm     38 % 0.0 mm 25.0 W/m2 BKN
21:07 33.2 °C 17.3 °C 1015.5 hPa Calm     39 % 0.0 mm 19.0 W/m2 BKN
21:12 32.8 °C 17.4 °C 1015.5 hPa Calm     40 % 0.0 mm 16.0 W/m2 BKN
21:17 32.4 °C 17.8 °C 1015.5 hPa Calm     42 % 0.0 mm 12.0 W/m2 BKN
21:22 32.0 °C 17.8 °C 1015.5 hPa Calm     43 % 0.0 mm 11.0 W/m2 BKN
21:27 31.8 °C 17.7 °C 1015.5 hPa Calm     43 % 0.0 mm 7.0 W/m2 BKN
21:32 31.6 °C 17.8 °C 1015.5 hPa Calm     44 % 0.0 mm 5.0 W/m2 OVC
21:37 31.1 °C 17.8 °C 1015.8 hPa Calm     45 % 0.0 mm 0.0 W/m2 OVC
21:42 30.8 °C 17.8 °C 1015.8 hPa Calm     46 % 0.0 mm 0.0 W/m2 OVC
21:47 30.6 °C 17.7 °C 1015.8 hPa Calm     46 % 0.0 mm 0.0 W/m2 CLR
21:52 30.4 °C 17.8 °C 1015.8 hPa Calm     47 % 0.0 mm 0.0 W/m2 CLR
21:57 30.1 °C 17.9 °C 1015.8 hPa Calm     48 % 0.0 mm 0.0 W/m2 CLR
22:02 29.7 °C 17.9 °C 1015.8 hPa Calm     49 % 0.0 mm 0.0 W/m2 CLR
22:07 29.4 °C 17.9 °C 1015.8 hPa Calm     50 % 0.0 mm 0.0 W/m2 CLR
22:12 29.2 °C 17.7 °C 1016.1 hPa Calm     50 % 0.0 mm 0.0 W/m2 CLR
22:17 29.0 °C 17.8 °C 1016.1 hPa Calm     51 % 0.0 mm 0.0 W/m2 CLR
22:22 28.8 °C 17.7 °C 1016.1 hPa Calm     51 % 0.0 mm 0.0 W/m2 CLR
22:27 28.7 °C 17.8 °C 1016.1 hPa Calm     52 % 0.0 mm 0.0 W/m2 CLR
22:32 28.5 °C 17.7 °C 1016.5 hPa Calm     52 % 0.0 mm 0.0 W/m2 CLR
22:37 28.2 °C 16.5 °C 1016.5 hPa Calm     49 % 0.0 mm 0.0 W/m2 CLR
22:42 27.9 °C 16.5 °C 1016.5 hPa Calm     50 % 0.0 mm 0.0 W/m2 CLR
22:47 27.6 °C 16.2 °C 1016.5 hPa Calm     50 % 0.0 mm 0.0 W/m2 CLR
22:52 27.3 °C 16.0 °C 1016.5 hPa Calm     50 % 0.0 mm 0.0 W/m2 CLR
22:57 27.1 °C 15.7 °C 1016.8 hPa Calm     50 % 0.0 mm 0.0 W/m2 CLR
23:02 26.7 °C 15.4 °C 1016.8 hPa Calm     50 % 0.0 mm 0.0 W/m2 CLR
23:07 26.5 °C 15.2 °C 1016.8 hPa Calm     50 % 0.0 mm 0.0 W/m2 CLR
23:12 26.3 °C 15.9 °C 1016.8 hPa Calm     53 % 0.0 mm 0.0 W/m2 CLR
23:17 26.1 °C 15.2 °C 1016.8 hPa Calm     51 % 0.0 mm 0.0 W/m2 CLR
23:22 25.8 °C 14.6 °C 1016.8 hPa Calm     50 % 0.0 mm 0.0 W/m2 CLR
23:27 25.6 °C 14.1 °C 1016.8 hPa Calm     49 % 0.0 mm 0.0 W/m2 CLR
23:32 25.4 °C 14.8 °C 1016.8 hPa Calm     52 % 0.0 mm 0.0 W/m2 CLR
23:37 25.2 °C 14.9 °C 1016.8 hPa Calm     53 % 0.0 mm 0.0 W/m2 CLR
23:42 25.0 °C 14.2 °C 1016.8 hPa Calm     51 % 0.0 mm 0.0 W/m2 CLR
23:47 24.9 °C 14.1 °C 1016.8 hPa Calm     51 % 0.0 mm 0.0 W/m2 CLR
23:52 24.8 °C 13.9 °C 1016.8 hPa Calm     51 % 0.0 mm 0.0 W/m2 CLR
23:57 24.6 °C 13.8 °C 1017.2 hPa Calm     51 % 0.0 mm 0.0 W/m2 CLR
Lo Temps de Massalio
Compliments of Weather Underground - 1.25 mb